createdAt,value
2019-02-26T00:00:30.642Z,14.70
2019-02-26T00:01:30.927Z,13.50
2019-02-26T00:02:32.492Z,14.30
2019-02-26T00:03:31.430Z,13.90
2019-02-26T00:04:32.193Z,13.30
2019-02-26T00:05:31.222Z,13.00
2019-02-26T00:06:30.402Z,14.20
2019-02-26T00:07:32.208Z,13.30
2019-02-26T00:08:31.744Z,14.40
2019-02-26T00:09:32.334Z,13.20
2019-02-26T00:10:31.527Z,14.20
2019-02-26T00:11:30.868Z,15.00
2019-02-26T00:12:31.041Z,14.90
2019-02-26T00:13:31.951Z,16.00
2019-02-26T00:14:30.425Z,13.20
2019-02-26T00:15:33.396Z,15.10
2019-02-26T00:16:35.373Z,12.90
2019-02-26T00:17:30.102Z,14.10
2019-02-26T00:18:30.145Z,14.00
2019-02-26T00:19:30.031Z,13.50
2019-02-26T00:20:31.908Z,15.10
2019-02-26T00:21:31.050Z,16.90
2019-02-26T00:22:31.892Z,16.80
2019-02-26T00:23:30.104Z,18.10
2019-02-26T00:24:30.747Z,16.30
2019-02-26T00:25:29.866Z,15.20
2019-02-26T00:26:29.831Z,16.20
2019-02-26T00:27:30.530Z,14.10
2019-02-26T00:28:29.775Z,17.20
2019-02-26T00:29:30.400Z,16.50
2019-02-26T00:30:31.275Z,19.60
2019-02-26T00:31:30.454Z,14.40
2019-02-26T00:32:30.366Z,19.60
2019-02-26T00:33:29.757Z,16.80
2019-02-26T00:34:30.523Z,15.40
2019-02-26T00:35:29.654Z,15.80
2019-02-26T00:36:31.424Z,16.70
2019-02-26T00:37:30.664Z,15.00
2019-02-26T00:38:29.491Z,16.40
2019-02-26T00:39:31.395Z,16.70
2019-02-26T00:40:29.432Z,16.50
2019-02-26T00:41:31.279Z,15.80
2019-02-26T00:42:31.378Z,17.90
2019-02-26T00:43:30.654Z,17.30
2019-02-26T00:44:29.873Z,17.60
2019-02-26T00:45:30.113Z,16.00
2019-02-26T00:46:30.290Z,18.00
2019-02-26T00:47:31.841Z,19.80
2019-02-26T00:48:31.431Z,17.60
2019-02-26T00:49:30.231Z,18.90
2019-02-26T00:50:30.376Z,17.70
2019-02-26T00:51:29.120Z,17.40
2019-02-26T00:52:30.362Z,16.80
2019-02-26T00:53:30.651Z,16.80
2019-02-26T00:54:29.841Z,21.00
2019-02-26T00:55:29.862Z,19.00
2019-02-26T00:56:29.808Z,16.70
2019-02-26T00:57:31.008Z,17.40
2019-02-26T00:58:28.920Z,18.10
2019-02-26T00:59:28.902Z,17.30
2019-02-26T01:00:30.781Z,16.00
2019-02-26T01:01:28.870Z,18.20
2019-02-26T01:02:28.804Z,18.50
2019-02-26T01:03:28.892Z,18.40
2019-02-26T01:04:28.753Z,18.40
2019-02-26T01:05:28.723Z,17.90
2019-02-26T01:06:29.423Z,19.80
2019-02-26T01:07:30.284Z,17.50
2019-02-26T01:08:28.710Z,16.00
2019-02-26T01:09:29.479Z,15.70
2019-02-26T01:10:28.573Z,16.30
2019-02-26T01:11:30.126Z,17.20
2019-02-26T01:12:28.532Z,20.20
2019-02-26T01:13:29.979Z,16.10
2019-02-26T01:14:28.542Z,19.40
2019-02-26T01:15:28.431Z,17.40
2019-02-26T01:16:28.403Z,17.30
2019-02-26T01:17:28.460Z,19.40
2019-02-26T01:18:28.961Z,19.20
2019-02-26T01:19:28.369Z,17.80
2019-02-26T01:20:30.231Z,16.60
2019-02-26T01:21:29.194Z,18.30
2019-02-26T01:22:28.231Z,16.00
2019-02-26T01:23:28.961Z,16.20
2019-02-26T01:24:30.465Z,17.50
2019-02-26T01:25:28.201Z,15.40
2019-02-26T01:26:28.111Z,15.70
2019-02-26T01:27:28.085Z,15.90
2019-02-26T01:28:29.269Z,17.60
2019-02-26T01:29:29.940Z,16.30
2019-02-26T01:30:29.407Z,17.20
2019-02-26T01:31:29.246Z,18.40
2019-02-26T01:32:27.944Z,14.90
2019-02-26T01:33:30.244Z,17.00
2019-02-26T01:34:27.951Z,17.00
2019-02-26T01:35:28.861Z,19.30
2019-02-26T01:36:27.878Z,17.00
2019-02-26T01:37:29.646Z,17.30
2019-02-26T01:38:27.774Z,19.40
2019-02-26T01:39:27.743Z,19.00
2019-02-26T01:40:27.792Z,14.60
2019-02-26T01:41:27.681Z,14.00
2019-02-26T01:42:29.360Z,15.90
2019-02-26T01:43:27.623Z,16.80
2019-02-26T01:44:30.409Z,18.70
2019-02-26T01:45:29.820Z,16.60
2019-02-26T01:46:27.531Z,15.50
2019-02-26T01:47:28.517Z,19.30
2019-02-26T01:48:27.481Z,16.30
2019-02-26T01:49:28.496Z,16.20
2019-02-26T01:50:28.325Z,16.60
2019-02-26T01:51:28.633Z,16.90
2019-02-26T01:52:27.369Z,17.40
2019-02-26T01:53:27.485Z,16.40
2019-02-26T01:54:28.195Z,18.00
2019-02-26T01:55:27.759Z,18.20
2019-02-26T01:56:27.275Z,18.50
2019-02-26T01:57:27.826Z,18.10
2019-02-26T01:58:27.283Z,16.70
2019-02-26T01:59:27.159Z,16.50
2019-02-26T02:00:27.134Z,19.10
2019-02-26T02:01:27.103Z,15.80
2019-02-26T02:02:28.419Z,16.70
2019-02-26T02:03:27.990Z,16.10
2019-02-26T02:04:27.122Z,17.10
2019-02-26T02:05:29.451Z,18.00
2019-02-26T02:06:26.951Z,19.00
2019-02-26T02:07:28.842Z,18.70
2019-02-26T02:08:26.966Z,17.40
2019-02-26T02:09:26.869Z,16.20
2019-02-26T02:10:26.951Z,18.30
2019-02-26T02:11:30.623Z,16.60
2019-02-26T02:12:29.521Z,15.50
2019-02-26T02:13:28.758Z,15.80
2019-02-26T02:14:26.775Z,20.10
2019-02-26T02:15:26.702Z,19.70
2019-02-26T02:16:29.054Z,21.40
2019-02-26T02:17:28.677Z,18.40
2019-02-26T02:18:29.372Z,17.40
2019-02-26T02:19:27.602Z,23.10
2019-02-26T02:20:26.600Z,16.50
2019-02-26T02:21:28.378Z,17.70
2019-02-26T02:22:26.512Z,19.20
2019-02-26T02:23:28.028Z,16.90
2019-02-26T02:24:26.542Z,18.50
2019-02-26T02:25:28.999Z,17.60
2019-02-26T02:26:26.447Z,20.00
2019-02-26T02:27:28.084Z,18.70
2019-02-26T02:28:28.455Z,19.70
2019-02-26T02:29:28.462Z,17.10
2019-02-26T02:30:28.117Z,20.80
2019-02-26T02:31:30.271Z,18.70
2019-02-26T02:32:28.743Z,18.70
2019-02-26T02:33:27.415Z,18.00
2019-02-26T02:34:27.004Z,18.40
2019-02-26T02:35:26.189Z,19.90
2019-02-26T02:36:26.611Z,18.20
2019-02-26T02:37:26.878Z,17.40
2019-02-26T02:38:26.024Z,18.90
2019-02-26T02:39:26.524Z,17.40
2019-02-26T02:40:25.961Z,16.50
2019-02-26T02:41:26.021Z,18.80
2019-02-26T02:42:25.908Z,17.10
2019-02-26T02:43:25.932Z,17.60
2019-02-26T02:44:25.840Z,17.80
2019-02-26T02:45:25.832Z,17.70
2019-02-26T02:46:25.792Z,17.30
2019-02-26T02:47:28.567Z,18.00
2019-02-26T02:48:25.729Z,20.00
2019-02-26T02:49:25.762Z,19.20
2019-02-26T02:50:25.673Z,18.10
2019-02-26T02:51:27.712Z,18.50
2019-02-26T02:52:27.060Z,18.00
2019-02-26T02:53:27.440Z,18.50
2019-02-26T02:54:26.152Z,17.20
2019-02-26T02:55:25.602Z,15.70
2019-02-26T02:56:25.615Z,17.90
2019-02-26T02:57:26.959Z,18.40
2019-02-26T02:58:26.090Z,19.40
2019-02-26T02:59:25.409Z,18.80
2019-02-26T03:00:26.517Z,17.30
2019-02-26T03:01:28.626Z,18.00
2019-02-26T03:02:25.319Z,16.50
2019-02-26T03:03:25.340Z,16.70
2019-02-26T03:04:28.262Z,18.30
2019-02-26T03:05:25.262Z,16.60
2019-02-26T03:06:28.209Z,16.10
2019-02-26T03:07:28.812Z,16.90
2019-02-26T03:08:25.166Z,16.20
2019-02-26T03:09:25.121Z,17.60
2019-02-26T03:10:28.425Z,18.00
2019-02-26T03:11:25.059Z,17.50
2019-02-26T03:12:25.103Z,17.00
2019-02-26T03:13:25.985Z,18.10
2019-02-26T03:14:25.010Z,20.10
2019-02-26T03:15:27.207Z,19.00
2019-02-26T03:16:27.049Z,18.30
2019-02-26T03:17:24.884Z,17.80
2019-02-26T03:18:24.854Z,18.70
2019-02-26T03:19:24.821Z,17.00
2019-02-26T03:20:27.673Z,18.00
2019-02-26T03:21:27.727Z,18.40
2019-02-26T03:22:24.839Z,17.80
2019-02-26T03:23:24.707Z,15.90
2019-02-26T03:24:26.270Z,16.80
2019-02-26T03:25:27.029Z,18.80
2019-02-26T03:26:25.883Z,16.40
2019-02-26T03:27:27.830Z,16.70
2019-02-26T03:28:24.579Z,16.60
2019-02-26T03:29:24.532Z,16.40
2019-02-26T03:30:31.988Z,18.30
2019-02-26T03:31:28.687Z,18.00
2019-02-26T03:32:24.522Z,19.20
2019-02-26T03:33:24.414Z,18.60
2019-02-26T03:34:25.580Z,17.30
2019-02-26T03:35:24.354Z,17.40
2019-02-26T03:36:24.333Z,18.40
2019-02-26T03:37:25.836Z,19.50
2019-02-26T03:38:26.329Z,17.90
2019-02-26T03:39:24.331Z,17.30
2019-02-26T03:40:26.873Z,18.60
2019-02-26T03:41:26.337Z,19.70
2019-02-26T03:42:24.154Z,18.80
2019-02-26T03:43:24.162Z,17.40
2019-02-26T03:44:24.103Z,17.40
2019-02-26T03:45:25.240Z,17.50
2019-02-26T03:46:24.070Z,17.70
2019-02-26T03:47:23.999Z,18.50
2019-02-26T03:48:24.084Z,17.30
2019-02-26T03:49:27.114Z,18.50
2019-02-26T03:50:26.443Z,20.10
2019-02-26T03:51:23.906Z,18.70
2019-02-26T03:52:23.863Z,17.00
2019-02-26T03:53:28.034Z,16.90
2019-02-26T03:54:23.792Z,17.50
2019-02-26T03:55:23.823Z,15.80
2019-02-26T03:56:23.745Z,18.50
2019-02-26T03:57:24.814Z,17.30
2019-02-26T03:58:23.671Z,17.70
2019-02-26T03:59:23.750Z,18.20
2019-02-26T04:00:23.619Z,18.00
2019-02-26T04:01:23.671Z,15.80
2019-02-26T04:02:23.629Z,15.70
2019-02-26T04:03:23.535Z,16.50
2019-02-26T04:04:25.613Z,15.80
2019-02-26T04:05:23.579Z,15.70
2019-02-26T04:06:23.439Z,16.00
2019-02-26T04:07:26.009Z,16.50
2019-02-26T04:08:24.392Z,17.80
2019-02-26T04:09:23.405Z,15.60
2019-02-26T04:10:23.332Z,15.80
2019-02-26T04:11:25.648Z,14.70
2019-02-26T04:12:23.282Z,15.40
2019-02-26T04:13:23.322Z,13.70
2019-02-26T04:14:25.594Z,15.00
2019-02-26T04:15:25.005Z,16.30
2019-02-26T04:16:23.257Z,15.00
2019-02-26T04:17:25.748Z,16.20
2019-02-26T04:18:23.154Z,18.10
2019-02-26T04:19:26.103Z,17.20
2019-02-26T04:20:26.888Z,14.00
2019-02-26T04:21:23.001Z,16.20
2019-02-26T04:22:24.102Z,14.40
2019-02-26T04:23:22.944Z,15.10
2019-02-26T04:24:23.691Z,15.60
2019-02-26T04:25:26.994Z,14.00
2019-02-26T04:26:23.485Z,16.40
2019-02-26T04:27:22.904Z,16.00
2019-02-26T04:28:27.375Z,18.70
2019-02-26T04:29:22.809Z,14.80
2019-02-26T04:30:22.733Z,16.40
2019-02-26T04:31:22.703Z,16.40
2019-02-26T04:32:23.257Z,15.40
2019-02-26T04:33:22.640Z,14.90
2019-02-26T04:34:23.391Z,18.60
2019-02-26T04:35:22.582Z,17.40
2019-02-26T04:36:22.550Z,16.20
2019-02-26T04:37:24.757Z,14.80
2019-02-26T04:38:23.366Z,14.50
2019-02-26T04:39:22.531Z,15.40
2019-02-26T04:40:22.472Z,15.40
2019-02-26T04:41:22.401Z,15.50
2019-02-26T04:42:22.371Z,16.10
2019-02-26T04:43:22.379Z,15.20
2019-02-26T04:44:23.929Z,16.80
2019-02-26T04:45:22.391Z,15.10
2019-02-26T04:46:22.251Z,16.20
2019-02-26T04:47:24.192Z,14.50
2019-02-26T04:48:23.646Z,15.90
2019-02-26T04:49:22.210Z,15.70
2019-02-26T04:50:26.108Z,15.00
2019-02-26T04:51:22.123Z,15.60
2019-02-26T04:52:22.081Z,15.50
2019-02-26T04:53:23.347Z,15.00
2019-02-26T04:54:26.359Z,16.70
2019-02-26T04:55:21.993Z,16.10
2019-02-26T04:56:22.056Z,15.60
2019-02-26T04:57:21.932Z,14.90
2019-02-26T04:58:22.674Z,14.90
2019-02-26T04:59:21.872Z,12.90
2019-02-26T05:00:23.667Z,16.90
2019-02-26T05:01:21.811Z,13.60
2019-02-26T05:02:21.903Z,12.80
2019-02-26T05:03:21.764Z,13.90
2019-02-26T05:04:21.724Z,14.00
2019-02-26T05:05:22.461Z,13.60
2019-02-26T05:06:21.713Z,13.10
2019-02-26T05:07:21.631Z,12.40
2019-02-26T05:08:21.665Z,13.30
2019-02-26T05:09:22.150Z,15.70
2019-02-26T05:10:24.267Z,12.60
2019-02-26T05:11:31.573Z,15.20
2019-02-26T05:12:25.086Z,14.30
2019-02-26T05:13:22.747Z,17.50
2019-02-26T05:14:23.604Z,13.90
2019-02-26T05:15:23.181Z,16.60
2019-02-26T05:16:21.475Z,15.00
2019-02-26T05:17:23.861Z,14.30
2019-02-26T05:18:23.164Z,14.00
2019-02-26T05:19:22.351Z,14.30
2019-02-26T05:20:21.283Z,15.80
2019-02-26T05:21:21.210Z,15.00
2019-02-26T05:22:22.684Z,14.80
2019-02-26T05:23:23.279Z,15.10
2019-02-26T05:25:52.950Z,14.20
2019-02-26T05:26:52.845Z,15.40
2019-02-26T05:28:56.861Z,20.10
2019-02-26T05:29:56.753Z,14.40
2019-02-26T05:32:01.776Z,16.90
2019-02-26T05:33:02.902Z,15.20
2019-02-26T05:35:04.684Z,15.80
2019-02-26T05:36:06.224Z,14.80
2019-02-26T05:38:09.656Z,16.20
2019-02-26T05:39:08.499Z,14.80
2019-02-26T05:41:12.525Z,15.50
2019-02-26T05:42:12.425Z,14.10
2019-02-26T05:44:16.418Z,15.40
2019-02-26T05:45:16.310Z,17.50
2019-02-26T05:47:21.416Z,16.10
2019-02-26T05:48:22.579Z,13.90
2019-02-26T05:50:16.173Z,15.70
2019-02-26T05:51:13.070Z,14.90
2019-02-26T05:53:17.087Z,15.20
2019-02-26T05:54:20.826Z,16.80
2019-02-26T05:56:22.912Z,15.80
2019-02-26T05:57:31.295Z,15.20
2019-02-26T05:59:24.949Z,14.20
2019-02-26T06:00:28.969Z,17.20
2019-02-26T06:02:28.913Z,17.60
2019-02-26T06:03:28.814Z,16.00
2019-02-26T06:05:32.771Z,17.80
2019-02-26T06:06:32.827Z,16.80
2019-02-26T06:08:39.261Z,15.70
2019-02-26T06:09:36.654Z,15.20
2019-02-26T06:11:42.845Z,17.20
2019-02-26T06:12:43.333Z,16.40
2019-02-26T06:14:44.553Z,17.80
2019-02-26T06:15:44.536Z,16.10
2019-02-26T06:17:50.835Z,17.30
2019-02-26T06:18:49.106Z,15.40
2019-02-26T06:20:41.323Z,16.30
2019-02-26T06:21:43.920Z,13.20
2019-02-26T06:23:45.372Z,15.60
2019-02-26T06:24:45.164Z,14.60
2019-02-26T06:26:49.215Z,15.30
2019-02-26T06:27:49.173Z,16.10
2019-02-26T06:29:57.210Z,15.90
2019-02-26T06:30:55.049Z,15.50
2019-02-26T06:33:02.033Z,15.80
2019-02-26T06:34:01.521Z,16.00
2019-02-26T06:36:02.260Z,16.40
2019-02-26T06:37:01.223Z,15.00
2019-02-26T06:39:06.025Z,15.30
2019-02-26T06:40:07.357Z,14.80
2019-02-26T06:42:10.339Z,14.90
2019-02-26T06:43:09.253Z,15.30
2019-02-26T06:45:16.258Z,16.20
2019-02-26T06:46:14.144Z,17.60
2019-02-26T06:48:20.180Z,17.70
2019-02-26T06:49:19.991Z,15.80
2019-02-26T06:51:23.865Z,15.00
2019-02-26T06:52:21.292Z,14.40
2019-02-26T06:54:27.115Z,14.50
2019-02-26T06:55:25.321Z,16.20
2019-02-26T06:57:29.543Z,13.90
2019-02-26T06:58:29.332Z,15.00
2019-02-26T07:00:24.591Z,16.30
2019-02-26T07:01:22.170Z,15.60
2019-02-26T07:03:26.203Z,16.30
2019-02-26T07:04:29.399Z,16.20
2019-02-26T07:06:30.951Z,15.20
2019-02-26T07:07:30.005Z,16.20
2019-02-26T07:09:34.657Z,14.70
2019-02-26T07:10:33.915Z,16.30
2019-02-26T07:12:38.773Z,14.70
2019-02-26T07:13:39.171Z,14.30
2019-02-26T07:15:45.188Z,16.00
2019-02-26T07:16:41.742Z,14.70
2019-02-26T07:18:45.766Z,14.50
2019-02-26T07:19:45.652Z,14.20
2019-02-26T07:21:51.314Z,15.40
2019-02-26T07:22:51.577Z,15.70
2019-02-26T07:24:54.008Z,14.90
2019-02-26T07:25:53.473Z,16.20
2019-02-26T07:27:58.727Z,17.00
2019-02-26T07:28:57.383Z,14.70
2019-02-26T07:30:50.355Z,15.00
2019-02-26T07:31:51.882Z,15.10
2019-02-26T07:33:56.388Z,15.00
2019-02-26T07:34:54.150Z,15.80
2019-02-26T07:36:58.172Z,15.80
2019-02-26T07:37:59.494Z,15.00
2019-02-26T07:40:03.750Z,16.20
2019-02-26T07:41:03.777Z,17.30
2019-02-26T07:43:09.126Z,14.90
2019-02-26T07:44:09.030Z,14.70
2019-02-26T07:45:14.571Z,16.10
2019-02-26T07:46:05.834Z,14.30
2019-02-26T07:47:06.691Z,17.10
2019-02-26T07:48:05.771Z,15.70
2019-02-26T07:49:07.422Z,16.30
2019-02-26T07:50:06.684Z,17.20
2019-02-26T07:51:05.680Z,15.40
2019-02-26T07:52:06.880Z,16.70
2019-02-26T07:53:05.626Z,14.50
2019-02-26T07:54:05.590Z,16.90
2019-02-26T07:55:06.241Z,15.90
2019-02-26T07:56:06.720Z,16.80
2019-02-26T07:57:05.491Z,14.60
2019-02-26T07:58:06.309Z,17.20
2019-02-26T07:59:09.409Z,17.40
2019-02-26T08:00:05.427Z,17.00
2019-02-26T08:01:05.482Z,15.00
2019-02-26T08:02:06.385Z,15.20
2019-02-26T08:03:05.380Z,17.50
2019-02-26T08:04:06.227Z,18.40
2019-02-26T08:05:05.260Z,17.90
2019-02-26T08:06:07.224Z,21.90
2019-02-26T08:07:05.202Z,16.80
2019-02-26T08:08:05.211Z,16.80
2019-02-26T08:09:07.073Z,18.40
2019-02-26T08:10:06.059Z,14.90
2019-02-26T08:11:05.086Z,16.80
2019-02-26T08:12:07.176Z,18.00
2019-02-26T08:13:06.265Z,13.80
2019-02-26T08:14:05.056Z,14.40
2019-02-26T08:15:07.440Z,15.20
2019-02-26T08:16:05.239Z,14.30
2019-02-26T08:17:06.324Z,12.80
2019-02-26T08:18:05.345Z,14.10
2019-02-26T08:19:04.895Z,11.00
2019-02-26T08:20:07.442Z,14.20
2019-02-26T08:21:05.165Z,11.80
2019-02-26T08:22:04.751Z,14.40
2019-02-26T08:23:04.818Z,14.90
2019-02-26T08:24:04.693Z,14.50
2019-02-26T08:25:04.727Z,14.70
2019-02-26T08:26:04.630Z,13.20
2019-02-26T08:27:06.059Z,11.70
2019-02-26T08:28:04.652Z,10.70
2019-02-26T08:29:05.680Z,15.00
2019-02-26T08:30:06.717Z,13.20
2019-02-26T08:31:05.391Z,10.90
2019-02-26T08:32:04.458Z,12.90
2019-02-26T08:33:07.164Z,11.80
2019-02-26T08:34:04.480Z,13.10
2019-02-26T08:35:04.363Z,11.90
2019-02-26T08:36:04.392Z,11.10
2019-02-26T08:37:04.333Z,10.50
2019-02-26T08:38:06.240Z,12.40
2019-02-26T08:39:04.309Z,12.50
2019-02-26T08:40:04.222Z,13.60
2019-02-26T08:41:04.234Z,13.00
2019-02-26T08:42:04.174Z,14.80
2019-02-26T08:43:04.133Z,14.80
2019-02-26T08:44:04.101Z,12.70
2019-02-26T08:45:04.143Z,13.70
2019-02-26T08:46:04.051Z,12.80
2019-02-26T08:47:08.752Z,12.40
2019-02-26T08:48:03.994Z,12.50
2019-02-26T08:49:08.407Z,11.90
2019-02-26T08:50:06.683Z,12.00
2019-02-26T08:51:06.181Z,11.10
2019-02-26T08:52:03.879Z,13.20
2019-02-26T08:53:03.893Z,13.30
2019-02-26T08:54:03.825Z,12.90
2019-02-26T08:55:03.815Z,13.00
2019-02-26T08:56:04.140Z,13.20
2019-02-26T08:57:03.825Z,11.90
2019-02-26T08:58:03.723Z,16.10
2019-02-26T08:59:03.718Z,12.90
2019-02-26T09:00:03.654Z,12.60
2019-02-26T09:01:03.647Z,12.00
2019-02-26T09:02:03.584Z,11.20
2019-02-26T09:03:03.677Z,14.00
2019-02-26T09:04:03.544Z,14.40
2019-02-26T09:05:04.992Z,11.30
2019-02-26T09:06:12.824Z,14.10
2019-02-26T09:07:03.442Z,11.90
2019-02-26T09:08:03.493Z,13.70
2019-02-26T09:09:05.005Z,13.10
2019-02-26T09:10:03.361Z,14.10
2019-02-26T09:11:03.896Z,11.90
2019-02-26T09:12:03.424Z,10.50
2019-02-26T09:13:03.271Z,12.60
2019-02-26T09:14:04.850Z,14.40
2019-02-26T09:15:03.223Z,12.20
2019-02-26T09:16:05.538Z,12.40
2019-02-26T09:17:04.494Z,12.50
2019-02-26T09:18:03.165Z,9.50
2019-02-26T09:19:03.103Z,11.50
2019-02-26T09:20:09.372Z,13.20
2019-02-26T09:21:03.058Z,13.70
2019-02-26T09:22:03.083Z,11.90
2019-02-26T09:23:03.002Z,11.40
2019-02-26T09:24:05.421Z,13.60
2019-02-26T09:25:02.940Z,10.90
2019-02-26T09:26:05.159Z,10.00
2019-02-26T09:27:04.994Z,9.60
2019-02-26T09:28:02.915Z,11.90
2019-02-26T09:29:02.836Z,11.40
2019-02-26T09:30:03.460Z,11.50
2019-02-26T09:31:04.713Z,8.70
2019-02-26T09:32:02.822Z,12.30
2019-02-26T09:33:03.403Z,11.80
2019-02-26T09:34:02.698Z,12.30
2019-02-26T09:35:04.786Z,11.80
2019-02-26T09:36:02.646Z,11.50
2019-02-26T09:37:05.020Z,12.50
2019-02-26T09:38:02.592Z,12.80
2019-02-26T09:39:03.301Z,9.80
2019-02-26T09:40:04.845Z,11.50
2019-02-26T09:41:02.593Z,13.50
2019-02-26T09:42:04.211Z,11.90
2019-02-26T09:43:02.472Z,12.70
2019-02-26T09:44:06.218Z,13.50
2019-02-26T09:45:02.436Z,11.60
2019-02-26T09:46:04.009Z,14.10
2019-02-26T09:47:04.825Z,12.70
2019-02-26T09:48:02.361Z,11.90
2019-02-26T09:49:05.094Z,12.50
2019-02-26T09:50:02.322Z,15.00
2019-02-26T09:51:02.362Z,16.20
2019-02-26T09:52:03.954Z,10.30
2019-02-26T09:53:02.372Z,11.20
2019-02-26T09:54:02.247Z,13.20
2019-02-26T09:55:02.282Z,14.60
2019-02-26T09:56:02.211Z,13.70
2019-02-26T09:57:02.303Z,13.00
2019-02-26T09:58:02.632Z,13.30
2019-02-26T09:59:02.955Z,10.90
2019-02-26T10:00:03.321Z,14.30
2019-02-26T10:01:02.225Z,10.30
2019-02-26T10:02:04.066Z,11.70
2019-02-26T10:03:03.067Z,10.50
2019-02-26T10:04:03.604Z,13.50
2019-02-26T10:05:02.062Z,13.10
2019-02-26T10:06:02.154Z,12.40
2019-02-26T10:07:04.074Z,12.90
2019-02-26T10:08:03.450Z,11.70
2019-02-26T10:09:02.002Z,15.20
2019-02-26T10:10:05.460Z,11.90
2019-02-26T10:11:04.279Z,13.00
2019-02-26T10:12:02.782Z,9.70
2019-02-26T10:13:04.611Z,11.20
2019-02-26T10:14:02.904Z,11.60
2019-02-26T10:15:03.206Z,11.60
2019-02-26T10:16:04.017Z,12.60
2019-02-26T10:17:01.935Z,13.00
2019-02-26T10:18:04.130Z,13.40
2019-02-26T10:19:01.947Z,10.10
2019-02-26T10:20:04.418Z,10.50
2019-02-26T10:21:01.966Z,11.00
2019-02-26T10:22:03.567Z,11.30
2019-02-26T10:23:04.267Z,10.40
2019-02-26T10:24:02.080Z,11.10
2019-02-26T10:25:01.887Z,9.00
2019-02-26T10:26:03.480Z,9.40
2019-02-26T10:27:03.736Z,11.40
2019-02-26T10:28:05.698Z,10.60
2019-02-26T10:29:04.519Z,10.60
2019-02-26T10:30:02.797Z,11.00
2019-02-26T10:31:04.313Z,11.60
2019-02-26T10:32:01.711Z,13.20
2019-02-26T10:33:02.808Z,9.90
2019-02-26T10:34:03.074Z,10.00
2019-02-26T10:35:01.757Z,8.80
2019-02-26T10:36:03.411Z,9.10
2019-02-26T10:37:01.653Z,8.60
2019-02-26T10:38:05.139Z,8.30
2019-02-26T10:39:02.789Z,9.10
2019-02-26T10:40:01.684Z,9.30
2019-02-26T10:41:01.893Z,8.80
2019-02-26T10:42:02.561Z,7.30
2019-02-26T10:43:01.592Z,8.60
2019-02-26T10:44:01.618Z,9.00
2019-02-26T10:45:01.584Z,8.70
2019-02-26T10:46:01.624Z,10.60
2019-02-26T10:47:03.313Z,11.10
2019-02-26T10:48:01.814Z,9.90
2019-02-26T10:49:01.642Z,10.50
2019-02-26T10:50:01.522Z,9.10
2019-02-26T10:51:06.037Z,6.80
2019-02-26T10:52:01.517Z,8.40
2019-02-26T10:53:07.245Z,7.40
2019-02-26T10:54:02.783Z,9.50
2019-02-26T10:55:01.494Z,8.60
2019-02-26T10:56:01.494Z,9.30
2019-02-26T10:57:04.509Z,6.60
2019-02-26T10:58:06.905Z,7.10
2019-02-26T10:59:03.565Z,6.40
2019-02-26T11:00:02.485Z,6.90
2019-02-26T11:01:04.901Z,8.00
2019-02-26T11:02:03.070Z,7.90
2019-02-26T11:03:01.406Z,8.40
2019-02-26T11:04:01.395Z,7.90
2019-02-26T11:05:01.449Z,6.60
2019-02-26T11:06:01.372Z,5.50
2019-02-26T11:07:02.406Z,6.10
2019-02-26T11:08:02.934Z,5.60
2019-02-26T11:09:01.921Z,6.60
2019-02-26T11:10:01.363Z,6.40
2019-02-26T11:11:01.388Z,6.80
2019-02-26T11:12:05.214Z,7.10
2019-02-26T11:13:01.408Z,7.80
2019-02-26T11:14:01.307Z,5.40
2019-02-26T11:15:04.359Z,6.50
2019-02-26T11:16:03.050Z,5.30
2019-02-26T11:17:01.288Z,5.30
2019-02-26T11:18:01.382Z,8.10
2019-02-26T11:19:02.394Z,5.40
2019-02-26T11:20:04.345Z,5.70
2019-02-26T11:21:01.255Z,7.60
2019-02-26T11:22:04.145Z,7.10
2019-02-26T11:23:03.442Z,5.80
2019-02-26T11:24:03.509Z,6.70
2019-02-26T11:25:08.545Z,6.30
2019-02-26T11:27:05.311Z,6.00
2019-02-26T11:28:07.368Z,8.70
2019-02-26T11:30:09.318Z,7.60
2019-02-26T11:31:11.573Z,6.50
2019-02-26T11:33:15.452Z,6.10
2019-02-26T11:34:13.483Z,7.20
2019-02-26T11:36:17.282Z,6.10
2019-02-26T11:37:17.263Z,8.40
2019-02-26T11:39:21.340Z,5.00
2019-02-26T11:40:23.018Z,5.20
2019-02-26T11:42:26.076Z,6.60
2019-02-26T11:43:27.031Z,5.00
2019-02-26T11:45:29.373Z,7.00
2019-02-26T11:46:29.903Z,6.10
2019-02-26T11:48:33.390Z,5.10
2019-02-26T11:49:34.880Z,5.90
2019-02-26T11:51:41.752Z,6.20
2019-02-26T11:52:37.385Z,5.60
2019-02-26T11:54:42.166Z,6.10
2019-02-26T11:55:41.371Z,4.80
2019-02-26T11:57:47.383Z,5.30
2019-02-26T11:58:45.381Z,7.20
2019-02-26T12:00:39.932Z,4.90
2019-02-26T12:01:39.520Z,5.30
2019-02-26T12:03:43.955Z,6.50
2019-02-26T12:04:42.374Z,5.60
2019-02-26T12:06:46.422Z,4.50
2019-02-26T12:07:48.606Z,6.20
2019-02-26T12:09:50.432Z,5.20
2019-02-26T12:10:52.281Z,4.40
2019-02-26T12:12:56.610Z,4.60
2019-02-26T12:13:54.385Z,3.90
2019-02-26T12:15:58.481Z,3.50
2019-02-26T12:16:58.403Z,3.70
2019-02-26T12:19:04.046Z,6.80
2019-02-26T12:20:02.424Z,5.30
2019-02-26T12:22:06.493Z,5.40
2019-02-26T12:23:07.981Z,4.10
2019-02-26T12:25:11.084Z,5.70
2019-02-26T12:26:10.442Z,4.90
2019-02-26T12:28:14.563Z,4.70
2019-02-26T12:29:16.205Z,4.80
2019-02-26T12:31:18.501Z,6.00
2019-02-26T12:32:19.990Z,6.70
2019-02-26T12:34:23.610Z,7.20
2019-02-26T12:35:22.492Z,4.50
2019-02-26T12:37:26.563Z,6.20
2019-02-26T12:38:26.505Z,5.10
2019-02-26T12:40:22.231Z,4.40
2019-02-26T12:41:21.026Z,5.20
2019-02-26T12:43:23.541Z,3.90
2019-02-26T12:44:23.485Z,5.40
2019-02-26T12:45:26.119Z,4.10
2019-02-26T12:46:25.067Z,4.40
2019-02-26T12:47:24.628Z,4.80
2019-02-26T12:48:23.536Z,7.30
2019-02-26T12:49:23.446Z,9.60
2019-02-26T12:50:26.622Z,7.80
2019-02-26T12:51:27.616Z,14.90
2019-02-26T12:52:25.171Z,8.10
2019-02-26T12:53:23.688Z,5.10
2019-02-26T12:54:24.233Z,9.10
2019-02-26T12:55:28.921Z,10.40
2019-02-26T12:56:24.184Z,6.90
2019-02-26T12:57:26.052Z,6.00
2019-02-26T12:58:26.190Z,6.30
2019-02-26T12:59:23.415Z,63.40
2019-02-26T13:00:23.356Z,30.40
2019-02-26T13:01:23.430Z,8.30
2019-02-26T13:02:25.623Z,6.20
2019-02-26T13:03:23.324Z,7.20
2019-02-26T13:04:25.052Z,6.80
2019-02-26T13:05:23.367Z,9.50
2019-02-26T13:06:23.302Z,17.20
2019-02-26T13:07:23.361Z,10.20
2019-02-26T13:08:24.195Z,22.60
2019-02-26T13:09:26.662Z,11.50
2019-02-26T13:10:23.265Z,7.50
2019-02-26T13:11:24.882Z,9.00
2019-02-26T13:12:24.003Z,7.30
2019-02-26T13:13:23.302Z,7.30
2019-02-26T13:14:23.242Z,6.80
2019-02-26T13:15:23.323Z,7.70
2019-02-26T13:16:23.211Z,6.80
2019-02-26T13:17:26.156Z,6.20
2019-02-26T13:18:23.194Z,6.90
2019-02-26T13:19:29.169Z,6.30
2019-02-26T13:20:23.177Z,5.70
2019-02-26T13:21:23.262Z,6.80
2019-02-26T13:22:23.153Z,5.70
2019-02-26T13:23:23.220Z,5.70
2019-02-26T13:24:26.470Z,5.90
2019-02-26T13:25:26.689Z,6.10
2019-02-26T13:26:23.230Z,7.00
2019-02-26T13:27:23.107Z,6.20
2019-02-26T13:28:29.384Z,6.20
2019-02-26T13:29:23.072Z,7.10
2019-02-26T13:30:23.061Z,8.70
2019-02-26T13:31:23.087Z,6.10
2019-02-26T13:32:26.071Z,6.80
2019-02-26T13:33:27.498Z,7.50
2019-02-26T13:34:23.022Z,6.50
2019-02-26T13:35:23.051Z,6.90
2019-02-26T13:36:23.040Z,10.30
2019-02-26T13:37:26.551Z,7.50
2019-02-26T13:38:24.812Z,7.50
2019-02-26T13:39:29.839Z,8.10
2019-02-26T13:40:22.953Z,8.40
2019-02-26T13:41:29.931Z,8.40
2019-02-26T13:42:23.002Z,8.40
2019-02-26T13:43:22.915Z,8.40
2019-02-26T13:44:22.927Z,8.10
2019-02-26T13:45:22.881Z,8.80
2019-02-26T13:46:22.875Z,10.00
2019-02-26T13:47:22.861Z,8.00
2019-02-26T13:48:22.956Z,8.40
2019-02-26T13:49:22.832Z,8.30
2019-02-26T13:50:22.858Z,7.30
2019-02-26T13:51:22.812Z,7.50
2019-02-26T13:52:22.790Z,8.40
2019-02-26T13:53:22.874Z,8.60
2019-02-26T13:54:22.771Z,8.50
2019-02-26T13:55:22.783Z,8.00
2019-02-26T13:56:22.746Z,9.10
2019-02-26T13:57:22.730Z,8.00
2019-02-26T13:58:22.713Z,9.30
2019-02-26T13:59:22.814Z,9.10
2019-02-26T14:00:26.364Z,9.60
2019-02-26T14:01:22.721Z,7.90
2019-02-26T14:02:22.667Z,7.50
2019-02-26T14:03:22.651Z,10.10
2019-02-26T14:04:22.743Z,7.00
2019-02-26T14:05:22.634Z,6.90
2019-02-26T14:06:22.650Z,7.50
2019-02-26T14:07:22.600Z,6.70
2019-02-26T14:08:22.602Z,8.80
2019-02-26T14:09:22.573Z,7.80
2019-02-26T14:10:22.592Z,7.80
2019-02-26T14:11:22.539Z,7.10
2019-02-26T14:12:22.591Z,7.60
2019-02-26T14:13:22.522Z,10.10
2019-02-26T14:14:22.609Z,7.50